Time;durP1;ratioP1;P1;durP2;ratioP2;P2;SDS_P1;SDS_P2;PMS_P1;PMS_P2;Temp;Humidity;BMP_temperature;BMP_pressure;BME280_temperature;BME280_humidity;BME280_pressure;Samples;Min_cycle;Max_cycle;Signal;HPM_P1;HPM_P2
2020/12/03 00:01:01;;;;;;;202.65;28.90;;;-7.30;99.90;;;;;;4209144;28;20109;-43
2020/12/03 00:03:10;;;;;;;180.57;28.80;;;-7.20;99.90;;;;;;4206542;28;20102;-40
2020/12/03 00:05:11;;;;;;;94.05;23.92;;;-7.20;99.90;;;;;;4208752;28;20024;-47
2020/12/03 00:07:13;;;;;;;159.57;26.85;;;-7.20;99.90;;;;;;4208846;28;20047;-46
2020/12/03 00:09:18;;;;;;;206.48;31.52;;;-7.20;99.90;;;;;;4208670;28;20042;-42
2020/12/03 00:11:21;;;;;;;212.60;29.65;;;-7.20;99.90;;;;;;4208686;28;20051;-42
2020/12/03 00:13:25;;;;;;;429.17;42.88;;;-7.20;99.90;;;;;;4208013;28;20814;-45
2020/12/03 00:15:26;;;;;;;245.27;33.28;;;-7.20;99.90;;;;;;4208208;28;20113;-42
2020/12/03 00:17:27;;;;;;;223.10;33.45;;;-7.30;99.90;;;;;;4207943;28;20553;-44
2020/12/03 00:19:28;;;;;;;190.63;30.13;;;-7.30;99.90;;;;;;4209281;28;20061;-42
2020/12/03 00:21:43;;;;;;;417.77;44.60;;;-7.20;99.90;;;;;;4207341;28;20040;-41
2020/12/03 00:23:44;;;;;;;180.93;31.73;;;-7.20;99.90;;;;;;4208463;28;20101;-42
2020/12/03 00:25:46;;;;;;;171.13;30.27;;;-7.30;99.90;;;;;;4207993;28;20036;-44
2020/12/03 00:27:50;;;;;;;159.20;32.78;;;-7.20;99.90;;;;;;4208616;28;20036;-44
2020/12/03 00:29:51;;;;;;;102.47;25.98;;;-7.30;99.90;;;;;;4207584;28;20040;-44
2020/12/03 00:31:52;;;;;;;114.05;29.33;;;-7.30;99.90;;;;;;4208749;28;20446;-45
2020/12/03 00:33:54;;;;;;;128.38;28.20;;;-7.30;99.90;;;;;;4207382;28;20040;-45
2020/12/03 00:35:55;;;;;;;104.10;27.08;;;-7.30;99.90;;;;;;4208048;28;20117;-42
2020/12/03 00:37:56;;;;;;;132.85;28.63;;;-7.30;99.90;;;;;;4207037;28;20032;-44
2020/12/03 00:39:59;;;;;;;97.35;27.27;;;-7.30;99.90;;;;;;4208803;28;20931;-43
2020/12/03 00:42:00;;;;;;;114.88;27.48;;;-7.30;99.90;;;;;;4207014;28;20437;-43
2020/12/03 00:44:02;;;;;;;90.35;25.60;;;-7.30;99.90;;;;;;4208322;28;20136;-45
2020/12/03 00:46:04;;;;;;;143.68;30.55;;;-7.30;99.90;;;;;;4207636;28;20521;-45
2020/12/03 00:48:05;;;;;;;82.47;25.63;;;-7.30;99.90;;;;;;4208040;28;20534;-43
2020/12/03 00:50:10;;;;;;;93.57;27.70;;;-7.20;99.90;;;;;;4207917;28;20044;-42
2020/12/03 00:52:11;;;;;;;114.30;27.50;;;-7.10;99.90;;;;;;4206157;28;20032;-40
2020/12/03 00:54:12;;;;;;;83.57;27.88;;;-7.10;99.90;;;;;;4207574;28;20059;-43
2020/12/03 00:56:13;;;;;;;77.38;28.80;;;-7.10;99.90;;;;;;4207265;28;20039;-44
2020/12/03 00:58:15;;;;;;;71.07;26.90;;;-7.10;99.90;;;;;;4208540;28;20077;-42
2020/12/03 01:00:19;;;;;;;75.63;27.35;;;-7.00;99.90;;;;;;4206927;28;20080;-45
2020/12/03 01:02:20;;;;;;;76.63;26.55;;;-6.90;99.90;;;;;;4208745;28;20425;-45
2020/12/03 01:04:21;;;;;;;76.70;26.05;;;-6.90;99.90;;;;;;4206799;28;20028;-43
2020/12/03 01:06:22;;;;;;;92.25;28.48;;;-6.80;99.90;;;;;;4208420;28;20032;-43
2020/12/03 01:08:23;;;;;;;82.90;25.65;;;-6.80;99.90;;;;;;4207259;28;20066;-43
2020/12/03 01:10:29;;;;;;;81.65;26.38;;;-6.80;99.90;;;;;;4208192;28;20093;-41
2020/12/03 01:12:30;;;;;;;71.88;25.52;;;-6.80;99.90;;;;;;4206519;28;20036;-43
2020/12/03 01:14:34;;;;;;;72.30;24.60;;;-6.80;99.90;;;;;;4207718;28;20112;-41
2020/12/03 01:16:35;;;;;;;75.13;26.17;;;-6.70;99.90;;;;;;4206537;28;20565;-42
2020/12/03 01:18:36;;;;;;;81.85;27.45;;;-6.70;99.90;;;;;;4207527;28;20097;-42
2020/12/03 01:20:37;;;;;;;79.47;26.73;;;-6.70;99.90;;;;;;4205424;28;20109;-42
2020/12/03 01:22:38;;;;;;;78.53;26.20;;;-6.80;99.90;;;;;;4206917;28;20058;-42
2020/12/03 01:24:43;;;;;;;118.85;27.17;;;-6.80;99.90;;;;;;4207096;28;20036;-43
2020/12/03 01:26:44;;;;;;;184.13;30.02;;;-6.80;99.90;;;;;;4206794;28;20457;-45
2020/12/03 01:28:45;;;;;;;217.63;30.48;;;-6.80;99.90;;;;;;4207524;28;20040;-47
2020/12/03 01:30:46;;;;;;;205.13;32.13;;;-6.90;99.90;;;;;;4207031;28;20057;-44
2020/12/03 01:32:48;;;;;;;84.10;28.13;;;-7.10;99.90;;;;;;4207530;28;20036;-42
2020/12/03 01:34:49;;;;;;;70.70;25.52;;;-7.20;99.90;;;;;;4206861;28;20623;-43
2020/12/03 01:36:51;;;;;;;82.45;26.38;;;-7.20;99.90;;;;;;4207792;28;20036;-45
2020/12/03 01:38:52;;;;;;;64.10;25.27;;;-7.20;99.90;;;;;;4206415;28;20073;-42
2020/12/03 01:40:54;;;;;;;80.20;26.90;;;-7.20;99.90;;;;;;4207606;28;20057;-40
2020/12/03 01:42:55;;;;;;;83.00;27.48;;;-7.20;99.90;;;;;;4206891;28;20032;-43
2020/12/03 01:44:56;;;;;;;72.55;26.17;;;-7.20;99.90;;;;;;4207248;28;20475;-41
2020/12/03 01:46:57;;;;;;;80.00;25.35;;;-7.20;99.90;;;;;;4206659;28;20097;-40
2020/12/03 01:49:03;;;;;;;90.97;26.17;;;-7.20;99.90;;;;;;4207505;28;20121;-44
2020/12/03 01:51:18;;;;;;;77.75;27.52;;;-7.20;99.90;;;;;;4206538;28;20040;-41
2020/12/03 01:53:21;;;;;;;76.10;25.63;;;-7.20;99.90;;;;;;4207831;28;20109;-43
2020/12/03 01:55:22;;;;;;;70.30;26.25;;;-7.20;99.90;;;;;;4206938;28;20093;-43
2020/12/03 01:57:41;;;;;;;70.60;25.83;;;-7.20;99.90;;;;;;4206254;28;20049;-43
2020/12/03 01:59:50;;;;;;;72.10;25.88;;;-7.10;99.90;;;;;;4207224;28;20069;-45
2020/12/03 02:01:51;;;;;;;82.95;26.38;;;-7.10;99.90;;;;;;4206915;28;20048;-43
2020/12/03 02:03:53;;;;;;;75.45;25.70;;;-7.10;99.90;;;;;;4206552;28;20089;-45
2020/12/03 02:05:54;;;;;;;71.53;25.88;;;-7.10;99.90;;;;;;4206992;28;20089;-43
2020/12/03 02:07:55;;;;;;;68.50;25.42;;;-7.10;99.90;;;;;;4206941;28;20040;-45
2020/12/03 02:09:56;;;;;;;74.43;27.10;;;-7.10;99.90;;;;;;4206060;28;20422;-42
2020/12/03 02:11:57;;;;;;;70.60;26.13;;;-7.10;99.90;;;;;;4207631;28;20425;-46
2020/12/03 02:14:10;;;;;;;75.93;25.67;;;-7.10;99.90;;;;;;4206054;28;20085;-43
2020/12/03 02:16:11;;;;;;;64.05;23.77;;;-7.20;99.90;;;;;;4207540;28;20074;-42
2020/12/03 02:18:13;;;;;;;75.50;25.33;;;-7.30;99.90;;;;;;4205205;28;20521;-42
2020/12/03 02:20:17;;;;;;;76.78;25.75;;;-7.30;99.90;;;;;;4206763;28;20040;-45
2020/12/03 02:22:18;;;;;;;62.78;24.00;;;-7.30;99.90;;;;;;4205286;28;20491;-42
2020/12/03 02:24:21;;;;;;;69.18;24.13;;;-7.40;99.90;;;;;;4207315;28;20087;-41
2020/12/03 02:26:22;;;;;;;66.88;23.00;;;-7.40;99.90;;;;;;4204796;28;20545;-40
2020/12/03 02:28:23;;;;;;;66.57;22.92;;;-7.40;99.90;;;;;;4206691;28;20101;-44
2020/12/03 02:30:24;;;;;;;61.30;23.48;;;-7.40;99.90;;;;;;4206216;28;20044;-47
2020/12/03 02:32:25;;;;;;;65.90;23.98;;;-7.50;99.90;;;;;;4207476;28;20521;-47
2020/12/03 02:34:26;;;;;;;76.25;26.33;;;-7.50;99.90;;;;;;4205841;28;20108;-44
2020/12/03 02:36:27;;;;;;;67.22;25.75;;;-7.60;99.90;;;;;;4206083;28;20044;-45
2020/12/03 02:38:31;;;;;;;101.50;27.75;;;-7.50;99.90;;;;;;4205861;28;20032;-45
2020/12/03 02:40:32;;;;;;;114.55;26.42;;;-7.60;99.90;;;;;;4206114;28;20073;-43
2020/12/03 02:42:34;;;;;;;110.85;28.10;;;-7.60;99.90;;;;;;4206384;28;20074;-44
2020/12/03 02:44:38;;;;;;;107.45;28.17;;;-7.70;99.90;;;;;;4205625;28;20456;-41
2020/12/03 02:46:40;;;;;;;71.22;27.40;;;-7.60;99.90;;;;;;4206865;28;20036;-43
2020/12/03 02:48:41;;;;;;;87.95;26.67;;;-7.60;99.90;;;;;;4206066;28;20101;-45
2020/12/03 02:50:42;;;;;;;84.53;28.58;;;-7.70;99.90;;;;;;4207172;28;20441;-49
2020/12/03 02:52:43;;;;;;;89.47;29.25;;;-7.60;99.90;;;;;;4206022;28;20024;-46
2020/12/03 02:54:46;;;;;;;84.72;25.02;;;-7.60;99.90;;;;;;4206750;28;20078;-42
2020/12/03 02:56:48;;;;;;;88.85;26.60;;;-7.60;99.90;;;;;;4205059;28;20032;-43
2020/12/03 02:58:49;;;;;;;152.55;30.45;;;-7.60;99.90;;;;;;4206846;28;20101;-43
2020/12/03 03:00:50;;;;;;;85.25;26.90;;;-7.60;99.90;;;;;;4205979;28;20101;-43
2020/12/03 03:02:51;;;;;;;120.45;28.45;;;-7.60;99.90;;;;;;4206959;28;20518;-42
2020/12/03 03:04:52;;;;;;;138.85;27.15;;;-7.70;99.90;;;;;;4206140;28;20097;-43
2020/12/03 03:06:53;;;;;;;115.80;26.10;;;-7.70;99.90;;;;;;4206360;28;20508;-47
2020/12/03 03:08:55;;;;;;;102.30;25.23;;;-7.70;99.90;;;;;;4205829;28;20036;-44
2020/12/03 03:10:56;;;;;;;183.25;28.17;;;-7.80;99.90;;;;;;4206103;28;20048;-44
2020/12/03 03:12:57;;;;;;;85.70;26.80;;;-7.90;99.90;;;;;;4205579;28;20445;-43
2020/12/03 03:14:58;;;;;;;213.93;32.95;;;-8.00;99.90;;;;;;4205426;28;20056;-48
2020/12/03 03:16:59;;;;;;;134.20;27.20;;;-8.00;99.90;;;;;;4206706;28;20479;-43
2020/12/03 03:19:01;;;;;;;111.05;28.15;;;-8.00;99.90;;;;;;4205468;28;20098;-44
2020/12/03 03:21:02;;;;;;;116.95;29.38;;;-8.00;99.90;;;;;;4206586;28;20039;-42
2020/12/03 03:23:04;;;;;;;91.47;28.35;;;-8.00;99.90;;;;;;4205245;28;20189;-44
2020/12/03 03:25:06;;;;;;;87.05;28.17;;;-7.90;99.90;;;;;;4205803;28;20036;-42
2020/12/03 03:27:07;;;;;;;84.50;28.55;;;-7.90;99.90;;;;;;4205542;28;20475;-44
2020/12/03 03:29:08;;;;;;;83.57;27.02;;;-7.80;99.90;;;;;;4206180;28;20555;-42
2020/12/03 03:31:10;;;;;;;84.75;28.25;;;-7.70;99.90;;;;;;4205727;28;20028;-44
2020/12/03 03:33:11;;;;;;;80.93;28.27;;;-7.70;99.90;;;;;;4206297;28;20101;-40
2020/12/03 03:35:15;;;;;;;77.28;28.38;;;-7.60;99.90;;;;;;4205063;28;20044;-44
2020/12/03 03:37:17;;;;;;;82.35;28.20;;;-7.60;99.90;;;;;;4207596;28;20040;-43
2020/12/03 03:39:22;;;;;;;87.18;27.98;;;-7.50;99.90;;;;;;4208157;28;20101;-45
2020/12/03 03:41:23;;;;;;;79.82;27.45;;;-7.50;99.90;;;;;;4208557;28;20044;-44
2020/12/03 03:43:24;;;;;;;79.82;27.27;;;-7.60;99.90;;;;;;4208606;28;20032;-47
2020/12/03 03:45:25;;;;;;;68.45;26.05;;;-7.60;99.90;;;;;;4208816;28;20089;-43
2020/12/03 03:47:26;;;;;;;72.75;27.08;;;-7.60;99.90;;;;;;4208971;28;20024;-42
2020/12/03 03:49:27;;;;;;;74.13;26.35;;;-7.60;99.90;;;;;;4208165;28;20035;-44
2020/12/03 03:51:29;;;;;;;79.97;27.83;;;-7.60;99.90;;;;;;4209486;28;20097;-40
2020/12/03 03:53:30;;;;;;;80.47;27.88;;;-7.60;99.90;;;;;;4208279;28;20246;-46
2020/12/03 03:55:31;;;;;;;72.70;27.15;;;-7.60;99.90;;;;;;4209561;28;20035;-44
2020/12/03 03:57:32;;;;;;;78.20;27.30;;;-7.60;99.90;;;;;;4207936;28;20462;-45
2020/12/03 03:59:33;;;;;;;78.22;30.05;;;-7.60;99.90;;;;;;4209917;28;20028;-41
2020/12/03 04:01:34;;;;;;;76.18;26.70;;;-7.50;99.90;;;;;;4207971;28;20036;-41
2020/12/03 04:03:35;;;;;;;77.13;27.27;;;-7.60;99.90;;;;;;4209258;28;20089;-44
2020/12/03 04:05:36;;;;;;;76.03;26.98;;;-7.50;99.90;;;;;;4207421;28;20129;-43
2020/12/03 04:07:38;;;;;;;72.88;26.40;;;-7.50;99.90;;;;;;4208734;28;20652;-42
2020/12/03 04:09:39;;;;;;;68.45;25.75;;;-7.50;99.90;;;;;;4208099;28;20469;-47
2020/12/03 04:11:43;;;;;;;77.75;27.80;;;-7.60;99.90;;;;;;4209167;28;20024;-45
2020/12/03 04:13:45;;;;;;;67.57;26.00;;;-7.50;99.90;;;;;;4207966;28;20051;-44
2020/12/03 04:15:46;;;;;;;76.63;27.75;;;-7.50;99.90;;;;;;4208048;28;20048;-39
2020/12/03 04:17:47;;;;;;;70.90;26.77;;;-7.60;99.90;;;;;;4208273;28;20024;-43
2020/12/03 04:19:49;;;;;;;67.22;26.92;;;-7.60;99.90;;;;;;4208006;28;20044;-43
2020/12/03 04:21:50;;;;;;;73.30;26.70;;;-7.60;99.90;;;;;;4208464;28;20101;-45
2020/12/03 04:23:51;;;;;;;74.60;27.77;;;-7.60;99.90;;;;;;4207544;28;20074;-44
2020/12/03 04:25:52;;;;;;;77.30;28.40;;;-7.60;99.90;;;;;;4209053;28;20039;-47
2020/12/03 04:27:54;;;;;;;66.80;27.52;;;-7.60;99.90;;;;;;4207331;28;20052;-42
2020/12/03 04:29:55;;;;;;;75.05;29.33;;;-7.60;99.90;;;;;;4208911;28;20044;-45
2020/12/03 04:31:56;;;;;;;74.22;25.27;;;-7.60;99.90;;;;;;4207415;28;20035;-43
2020/12/03 04:33:57;;;;;;;68.65;26.58;;;-7.60;99.90;;;;;;4208673;28;20097;-43
2020/12/03 04:35:58;;;;;;;72.10;26.63;;;-7.60;99.90;;;;;;4207377;28;20039;-49
2020/12/03 04:37:59;;;;;;;82.45;29.38;;;-7.60;99.90;;;;;;4208496;28;20048;-42
2020/12/03 04:40:00;;;;;;;68.05;27.85;;;-7.60;99.90;;;;;;4206907;28;20110;-47
2020/12/03 04:42:02;;;;;;;73.63;28.00;;;-7.60;99.90;;;;;;4208498;28;20098;-45
2020/12/03 04:44:32;;;;;;;72.97;27.27;;;-7.60;99.90;;;;;;4207943;28;20084;-48
2020/12/03 04:47:06;;;;;;;74.43;28.40;;;-7.60;99.90;;;;;;4208461;28;20044;-45
2020/12/03 04:49:34;;;;;;;69.90;26.95;;;-7.60;99.90;;;;;;4177471;28;20085;-49
2020/12/03 04:51:50;;;;;;;74.28;28.40;;;-7.60;99.90;;;;;;4208331;28;20576;-44
2020/12/03 04:54:06;;;;;;;70.82;27.65;;;-7.50;99.90;;;;;;4207082;28;20028;-50
2020/12/03 04:56:17;;;;;;;71.82;27.98;;;-7.50;99.90;;;;;;4208203;28;20089;-43
2020/12/03 04:58:24;;;;;;;76.03;29.27;;;-7.50;99.90;;;;;;4206463;28;20048;-44
2020/12/03 05:00:25;;;;;;;78.45;28.17;;;-7.30;99.90;;;;;;4208843;28;20032;-47
2020/12/03 05:02:44;;;;;;;71.75;29.50;;;-7.30;99.90;;;;;;4206457;28;20040;-43
2020/12/03 05:05:01;;;;;;;75.03;28.65;;;-7.30;99.90;;;;;;4208041;28;20024;-44
2020/12/03 05:07:08;;;;;;;76.55;27.83;;;-7.30;99.90;;;;;;4204487;28;20040;-46
2020/12/03 05:09:19;;;;;;;71.22;28.00;;;-7.30;99.90;;;;;;4208224;28;20096;-43
2020/12/03 05:11:29;;;;;;;72.43;27.55;;;-7.30;99.90;;;;;;4206889;28;20085;-46
2020/12/03 05:13:41;;;;;;;64.70;25.40;;;-7.20;99.90;;;;;;4208298;28;20040;-42
2020/12/03 05:15:42;;;;;;;68.97;25.75;;;-7.20;99.90;;;;;;4206888;28;20088;-43
2020/12/03 05:18:31;;;;;;;75.05;27.42;;;-7.10;99.90;;;;;;4207935;28;20032;-42
2020/12/03 05:20:44;;;;;;;68.03;25.67;;;-7.10;99.90;;;;;;4206605;28;20102;-44
2020/12/03 05:22:55;;;;;;;70.35;27.23;;;-7.00;99.90;;;;;;4206082;28;20085;-46
2020/12/03 05:24:57;;;;;;;78.10;28.70;;;-7.00;99.90;;;;;;4206387;28;20090;-42
2020/12/03 05:26:58;;;;;;;78.78;28.45;;;-7.00;99.90;;;;;;4206784;28;20097;-42
2020/12/03 05:29:06;;;;;;;67.18;26.50;;;-7.00;99.90;;;;;;4205025;28;20052;-41
2020/12/03 05:31:07;;;;;;;68.90;27.88;;;-6.90;99.90;;;;;;4207545;28;20081;-46
2020/12/03 05:33:08;;;;;;;66.35;27.30;;;-6.90;99.90;;;;;;4206464;28;20032;-42
2020/12/03 05:35:10;;;;;;;84.32;32.35;;;-6.80;99.90;;;;;;4207720;28;20043;-43
2020/12/03 05:37:14;;;;;;;68.68;27.35;;;-6.80;99.90;;;;;;4206260;28;20040;-41
2020/12/03 05:39:24;;;;;;;69.47;27.70;;;-6.80;99.90;;;;;;4207113;28;20537;-42
2020/12/03 05:41:27;;;;;;;66.15;26.77;;;-6.80;99.90;;;;;;4206449;28;20054;-46
2020/12/03 05:43:30;;;;;;;61.47;25.85;;;-6.70;99.90;;;;;;4207555;28;20097;-47
2020/12/03 05:45:33;;;;;;;65.20;24.50;;;-6.70;99.90;;;;;;4205554;28;20036;-45
2020/12/03 05:47:37;;;;;;;67.10;27.52;;;-6.60;99.90;;;;;;4206945;28;20036;-45
2020/12/03 05:49:41;;;;;;;67.22;26.40;;;-6.60;99.90;;;;;;4205571;28;20070;-44
2020/12/03 05:51:42;;;;;;;67.80;25.58;;;-6.60;99.90;;;;;;4206514;28;20101;-41
2020/12/03 05:53:53;;;;;;;68.25;26.85;;;-6.60;99.90;;;;;;4205768;28;20098;-45
2020/12/03 05:56:20;;;;;;;60.70;23.67;;;-6.60;99.90;;;;;;4206610;28;20044;-41
2020/12/03 05:58:27;;;;;;;65.00;27.15;;;-6.60;99.90;;;;;;4205435;28;20041;-42
2020/12/03 06:00:28;;;;;;;64.05;26.40;;;-6.50;99.90;;;;;;4207963;28;20042;-45
2020/12/03 06:02:54;;;;;;;72.70;26.90;;;-6.40;99.90;;;;;;4205947;28;20048;-43
2020/12/03 06:05:24;;;;;;;73.63;26.00;;;-6.30;99.90;;;;;;4195720;28;20032;-43
2020/12/03 06:07:33;;;;;;;60.10;25.25;;;-6.20;99.90;;;;;;4177857;28;20089;-41
2020/12/03 06:10:04;;;;;;;67.45;26.73;;;-6.10;99.90;;;;;;4206970;28;20141;-41
2020/12/03 06:12:27;;;;;;;62.67;24.25;;;-6.00;99.90;;;;;;4203680;28;20094;-44
2020/12/03 06:14:50;;;;;;;59.97;25.40;;;-5.90;99.90;;;;;;4206080;28;20173;-44
2020/12/03 06:17:35;;;;;;;58.85;25.00;;;-5.70;99.90;;;;;;4205765;28;20109;-44
2020/12/03 06:20:00;;;;;;;59.80;24.65;;;-5.50;99.90;;;;;;4176026;28;20105;-41
2020/12/03 06:22:10;;;;;;;67.97;24.55;;;-5.30;99.90;;;;;;4206720;28;20365;-43
2020/12/03 06:24:24;;;;;;;67.93;26.48;;;-5.20;99.90;;;;;;4205331;28;20171;-46
2020/12/03 06:26:44;;;;;;;60.42;26.52;;;-5.10;99.90;;;;;;4206621;28;20040;-46
2020/12/03 06:29:26;;;;;;;56.90;24.58;;;-4.90;99.90;;;;;;4205026;28;20185;-44
2020/12/03 06:31:48;;;;;;;64.57;27.98;;;-4.80;99.90;;;;;;4206626;28;20036;-40
2020/12/03 06:33:59;;;;;;;54.75;23.20;;;-4.70;99.90;;;;;;4205122;28;20039;-43
2020/12/03 06:36:17;;;;;;;57.58;23.52;;;-4.60;99.90;;;;;;4206147;28;20097;-44
2020/12/03 06:38:43;;;;;;;52.92;26.45;;;-4.60;99.90;;;;;;4205988;28;20032;-46
2020/12/03 06:40:54;;;;;;;56.78;23.90;;;-4.50;99.90;;;;;;4205992;28;20171;-43
2020/12/03 06:43:16;;;;;;;53.67;25.52;;;-4.40;99.90;;;;;;4205661;28;20032;-46
2020/12/03 06:45:42;;;;;;;49.33;21.98;;;-4.40;99.90;;;;;;4205786;28;20028;-48
2020/12/03 06:48:20;;;;;;;53.55;23.13;;;-4.30;99.90;;;;;;4206772;28;20028;-43
2020/12/03 06:51:00;;;;;;;56.40;22.42;;;-4.30;99.90;;;;;;4205608;28;20052;-46
2020/12/03 06:53:19;;;;;;;59.58;25.20;;;-4.20;99.90;;;;;;4203479;28;20040;-43
2020/12/03 06:55:38;;;;;;;53.58;22.23;;;-4.00;99.90;;;;;;4204982;28;20639;-44
2020/12/03 06:57:45;;;;;;;49.92;22.98;;;-3.90;99.90;;;;;;4205683;28;20090;-44
2020/12/03 07:00:11;;;;;;;51.40;21.42;;;-3.80;99.90;;;;;;4205652;28;20306;-44
2020/12/03 07:02:25;;;;;;;53.50;22.25;;;-3.70;99.90;;;;;;4206697;28;20031;-41
2020/12/03 07:04:51;;;;;;;51.77;22.07;;;-3.60;99.90;;;;;;4205508;28;20410;-51
2020/12/03 07:07:13;;;;;;;45.90;19.37;;;-3.40;99.90;;;;;;4205341;28;20817;-46
2020/12/03 07:09:45;;;;;;;49.23;21.83;;;-3.40;99.90;;;;;;4206238;28;20272;-40
2020/12/03 07:12:04;;;;;;;45.47;20.63;;;-3.30;99.90;;;;;;4205531;28;20248;-47
2020/12/03 07:14:23;;;;;;;49.97;21.70;;;-3.30;99.90;;;;;;4209774;28;20307;-40
2020/12/03 07:16:53;;;;;;;40.90;19.13;;;-3.40;99.90;;;;;;4208509;28;20040;-46
2020/12/03 07:19:19;;;;;;;48.72;23.42;;;-3.30;99.90;;;;;;4157725;28;20287;-47
2020/12/03 07:21:41;;;;;;;47.17;21.60;;;-3.30;99.90;;;;;;4208019;28;20536;-44
2020/12/03 07:23:59;;;;;;;56.17;23.93;;;-3.10;99.90;;;;;;4209787;28;20265;-47
2020/12/03 07:26:04;;;;;;;53.03;23.17;;;-3.00;99.90;;;;;;4208472;28;20401;-44
2020/12/03 07:28:23;;;;;;;47.13;22.60;;;-2.80;99.90;;;;;;4208220;28;20288;-43
2020/12/03 07:30:36;;;;;;;51.73;22.97;;;-2.80;99.90;;;;;;4208712;28;20284;-45
2020/12/03 07:32:56;;;;;;;49.73;22.93;;;-2.90;99.90;;;;;;4208876;28;20585;-49
2020/12/03 07:35:20;;;;;;;44.63;21.30;;;-2.90;99.90;;;;;;4209399;28;20326;-43
2020/12/03 07:37:33;;;;;;;47.73;22.60;;;-2.70;99.90;;;;;;4208277;28;20354;-45
2020/12/03 07:39:36;;;;;;;51.90;21.27;;;-2.70;99.90;;;;;;4208709;28;20330;-49
2020/12/03 07:41:48;;;;;;;47.73;21.43;;;-2.60;99.90;;;;;;4207840;28;20809;-52
2020/12/03 07:44:16;;;;;;;50.30;23.33;;;-2.50;99.90;;;;;;4208343;28;20268;-44
2020/12/03 07:46:29;;;;;;;46.07;22.33;;;-2.40;99.90;;;;;;4196520;28;20671;-44
2020/12/03 07:48:33;;;;;;;51.73;23.17;;;-2.30;99.90;;;;;;4209513;28;20662;-45
2020/12/03 07:51:05;;;;;;;49.03;24.10;;;-2.20;99.90;;;;;;4207784;28;20261;-44
2020/12/03 07:53:15;;;;;;;62.13;28.83;;;-2.20;99.90;;;;;;4208430;28;20835;-44
2020/12/03 07:55:22;;;;;;;53.85;25.77;;;-2.10;99.90;;;;;;4207707;28;20273;-48
2020/12/03 07:57:38;;;;;;;49.77;24.33;;;-1.90;99.90;;;;;;4209039;28;20647;-45
2020/12/03 07:59:40;;;;;;;52.60;23.03;;;-1.90;99.90;;;;;;4207786;28;20280;-41
2020/12/03 08:01:41;;;;;;;42.60;20.17;;;-1.70;99.90;;;;;;4209106;28;20326;-45
2020/12/03 08:03:48;;;;;;;42.43;20.37;;;-1.70;99.90;;;;;;4207189;28;20350;-43
2020/12/03 08:05:53;;;;;;;42.17;21.33;;;-1.60;99.90;;;;;;4207739;28;20269;-45
2020/12/03 08:07:55;;;;;;;41.47;19.63;;;-1.60;99.90;;;;;;4205035;28;21459;-45
2020/12/03 08:09:58;;;;;;;40.53;17.97;;;-1.40;99.90;;;;;;4208757;28;20273;-43
2020/12/03 08:12:00;;;;;;;39.40;18.93;;;-1.30;99.90;;;;;;4206899;28;20337;-40
2020/12/03 08:14:02;;;;;;;44.80;20.03;;;-1.30;99.90;;;;;;4207546;28;20280;-42
2020/12/03 08:16:10;;;;;;;38.77;18.67;;;-1.30;99.90;;;;;;4207983;28;20300;-41
2020/12/03 08:18:38;;;;;;;34.43;17.03;;;-1.30;99.90;;;;;;4208334;28;20281;-44
2020/12/03 08:20:44;;;;;;;35.43;17.13;;;-1.20;99.90;;;;;;4190665;28;20687;-53
2020/12/03 08:22:49;;;;;;;43.13;18.33;;;-1.20;99.90;;;;;;4191124;28;20655;-46
2020/12/03 08:25:03;;;;;;;39.03;18.67;;;-1.10;99.90;;;;;;4189732;28;21168;-48
2020/12/03 08:27:18;;;;;;;41.00;18.53;;;-1.10;99.90;;;;;;4191678;28;20327;-50
2020/12/03 08:29:36;;;;;;;37.47;16.80;;;-1.00;99.90;;;;;;4190926;28;20323;-45
2020/12/03 08:31:37;;;;;;;36.60;16.07;;;-1.00;99.90;;;;;;4192556;28;20323;-52
2020/12/03 08:33:38;;;;;;;37.47;18.17;;;-1.00;99.90;;;;;;4190464;28;20376;-45
2020/12/03 08:35:40;;;;;;;33.73;14.57;;;-0.90;99.90;;;;;;4191889;28;20113;-43
2020/12/03 08:37:42;;;;;;;34.80;15.23;;;-0.80;99.90;;;;;;4190540;28;20289;-50
2020/12/03 08:39:45;;;;;;;38.97;16.87;;;-0.80;99.90;;;;;;4191027;28;20668;-48
2020/12/03 08:41:49;;;;;;;36.93;17.13;;;-0.70;99.90;;;;;;4190499;28;20718;-47
2020/12/03 08:43:53;;;;;;;33.93;15.03;;;-0.60;99.90;;;;;;4190975;28;20257;-48
2020/12/03 08:48:25;;;;;;;33.00;14.70;;;-0.50;99.90;;;;;;4190975;28;20633;-47
2020/12/03 08:50:26;;;;;;;34.80;17.13;;;-0.50;99.90;;;;;;4191029;28;20322;-43
2020/12/03 08:52:30;;;;;;;33.33;15.27;;;-0.40;99.90;;;;;;4190653;28;20338;-48
2020/12/03 08:54:32;;;;;;;40.73;17.70;;;-0.40;99.90;;;;;;4190740;28;20288;-42
2020/12/03 08:56:38;;;;;;;36.00;16.43;;;-0.40;99.90;;;;;;4189972;28;20696;-44
2020/12/03 08:58:43;;;;;;;40.80;17.57;;;-0.40;99.90;;;;;;4190168;28;20273;-51
2020/12/03 09:00:46;;;;;;;40.50;17.27;;;-0.40;99.90;;;;;;4189595;28;20265;-51
2020/12/03 09:02:47;;;;;;;38.67;17.47;;;-0.40;99.90;;;;;;4206112;28;20704;-47
2020/12/03 09:04:57;;;;;;;38.37;17.20;;;-0.30;99.90;;;;;;4205926;28;20272;-43
2020/12/03 09:07:07;;;;;;;38.75;15.93;;;-0.20;99.90;;;;;;4208349;28;20280;-47
2020/12/03 09:09:08;;;;;;;36.85;16.70;;;-0.10;99.90;;;;;;4206833;28;20036;-44
2020/12/03 09:11:10;;;;;;;39.50;16.97;;;0.00;99.90;;;;;;4207402;28;20040;-42
2020/12/03 09:13:16;;;;;;;29.07;14.80;;;0.10;99.90;;;;;;4206086;28;20265;-41
2020/12/03 09:15:18;;;;;;;40.43;15.43;;;0.10;99.90;;;;;;4207582;28;20674;-40
2020/12/03 09:17:22;;;;;;;42.20;17.53;;;0.10;99.90;;;;;;4206540;28;20292;-44
2020/12/03 09:19:24;;;;;;;32.43;15.33;;;0.20;99.90;;;;;;4207327;28;20281;-45
2020/12/03 09:21:27;;;;;;;32.57;15.57;;;0.30;99.90;;;;;;4206279;28;20272;-42
2020/12/03 09:23:31;;;;;;;35.10;16.40;;;0.40;99.90;;;;;;4207658;28;20333;-48
2020/12/03 09:25:32;;;;;;;31.83;14.50;;;0.50;99.90;;;;;;4206391;28;20314;-50
2020/12/03 09:27:44;;;;;;;38.33;16.17;;;0.50;99.90;;;;;;4207340;28;20340;-50
2020/12/03 09:29:49;;;;;;;40.90;14.83;;;0.70;99.90;;;;;;4206137;28;21184;-44
2020/12/03 09:31:59;;;;;;;31.90;14.87;;;0.80;99.90;;;;;;4204647;28;20257;-46
2020/12/03 09:34:01;;;;;;;26.33;13.23;;;0.90;99.90;;;;;;4205380;28;20643;-52
2020/12/03 09:36:03;;;;;;;29.27;13.00;;;1.00;99.90;;;;;;4206756;28;20605;-43
2020/12/03 09:38:08;;;;;;;26.73;12.33;;;1.00;99.90;;;;;;4204442;28;20385;-50
2020/12/03 09:40:09;;;;;;;24.13;12.47;;;1.00;99.90;;;;;;4206847;28;20280;-42
2020/12/03 09:42:15;;;;;;;26.20;12.93;;;1.00;99.90;;;;;;4205852;28;21067;-49
2020/12/03 09:44:19;;;;;;;31.53;14.00;;;1.00;99.90;;;;;;4205660;28;20398;-49
2020/12/03 09:46:25;;;;;;;33.23;14.07;;;1.10;99.90;;;;;;4206685;28;20333;-56
2020/12/03 09:48:27;;;;;;;33.97;13.23;;;1.20;99.90;;;;;;4205029;28;20326;-54
2020/12/03 09:50:29;;;;;;;32.67;14.83;;;1.10;99.90;;;;;;4207170;28;20261;-51
2020/12/03 09:52:35;;;;;;;26.23;12.57;;;1.10;99.90;;;;;;4204937;28;21161;-49
2020/12/03 09:54:40;;;;;;;30.67;13.40;;;1.10;99.90;;;;;;4206942;28;20281;-52
2020/12/03 09:56:41;;;;;;;25.87;13.20;;;1.10;99.90;;;;;;4205655;28;20285;-49
2020/12/03 09:58:43;;;;;;;27.17;13.60;;;1.10;99.90;;;;;;4207015;28;20268;-50
2020/12/03 10:00:46;;;;;;;29.33;13.83;;;1.10;99.90;;;;;;4205412;28;20349;-41
2020/12/03 10:03:17;;;;;;;30.77;13.87;;;1.20;99.90;;;;;;4207774;28;20322;-46
2020/12/03 10:05:40;;;;;;;25.47;13.40;;;1.20;99.90;;;;;;4205552;28;20269;-68
2020/12/03 10:08:14;;;;;;;28.93;13.17;;;1.20;99.90;;;;;;4207576;28;20318;-50
2020/12/03 10:10:25;;;;;;;30.47;12.73;;;1.30;99.90;;;;;;4205961;28;20264;-42
2020/12/03 10:12:42;;;;;;;29.33;14.30;;;1.40;99.90;;;;;;4205747;28;20264;-46
2020/12/03 10:15:00;;;;;;;25.60;12.67;;;1.50;99.90;;;;;;4205834;28;20739;-48
2020/12/03 10:17:06;;;;;;;26.10;13.80;;;1.60;99.90;;;;;;4205399;28;20366;-49
2020/12/03 10:19:11;;;;;;;31.40;14.50;;;1.80;99.90;;;;;;4206011;28;20268;-44
2020/12/03 10:21:20;;;;;;;33.17;13.10;;;1.90;99.90;;;;;;4192559;28;20667;-39
2020/12/03 10:23:42;;;;;;;27.70;12.87;;;1.90;99.90;;;;;;4189784;28;20295;-43
2020/12/03 10:25:58;;;;;;;36.67;15.73;;;1.90;99.90;;;;;;4196568;28;20334;-38
2020/12/03 10:28:22;;;;;;;38.20;15.37;;;2.00;99.90;;;;;;4201012;28;20365;-42
2020/12/03 10:30:36;;;;;;;31.40;15.90;;;2.00;99.90;;;;;;4204396;28;20276;-43
2020/12/03 10:32:44;;;;;;;33.57;16.17;;;1.90;99.90;;;;;;4190518;28;20269;-46
2020/12/03 10:34:48;;;;;;;33.90;16.70;;;1.80;99.90;;;;;;4187172;28;20277;-43
2020/12/03 10:37:00;;;;;;;33.80;15.27;;;1.70;99.90;;;;;;4190023;28;20289;-41
2020/12/03 10:39:02;;;;;;;32.67;13.33;;;1.60;99.90;;;;;;4188810;28;20269;-39
2020/12/03 10:41:05;;;;;;;29.90;13.97;;;1.70;99.90;;;;;;4200055;28;20268;-39
2020/12/03 10:43:08;;;;;;;24.87;10.40;;;1.80;99.90;;;;;;4205735;28;20278;-38
2020/12/03 10:45:15;;;;;;;26.03;12.03;;;1.90;99.90;;;;;;4206274;28;20261;-37
2020/12/03 10:47:21;;;;;;;23.80;11.60;;;1.90;99.90;;;;;;4203907;28;20346;-36
2020/12/03 10:49:26;;;;;;;28.67;11.67;;;2.10;99.90;;;;;;4204946;28;20820;-41